Time;durP1;ratioP1;P1;durP2;ratioP2;P2;SDS_P1;SDS_P2;PMS_P1;PMS_P2;Temp;Humidity;BMP_temperature;BMP_pressure;BME280_temperature;BME280_humidity;BME280_pressure;Samples;Min_cycle;Max_cycle;Signal;HPM_P1;HPM_P2
2020/12/12 00:00:41;;;;;;;30.70;17.52;;;4.50;99.90;;;;;;5013264;28;20036;-62
2020/12/12 00:03:06;;;;;;;28.30;17.65;;;4.50;99.90;;;;;;5010970;28;20053;-63
2020/12/12 00:05:32;;;;;;;25.50;16.08;;;4.40;99.90;;;;;;4995502;28;20025;-61
2020/12/12 00:07:58;;;;;;;28.70;16.23;;;4.50;99.90;;;;;;5012396;28;20022;-60
2020/12/12 00:10:26;;;;;;;24.55;15.75;;;4.50;99.90;;;;;;4994830;28;20049;-61
2020/12/12 00:12:52;;;;;;;29.55;16.48;;;4.50;99.90;;;;;;4995556;28;20064;-61
2020/12/12 00:15:18;;;;;;;27.25;16.88;;;4.50;99.90;;;;;;4994547;28;20026;-62
2020/12/12 00:17:44;;;;;;;29.55;17.10;;;4.50;99.90;;;;;;5012854;28;20482;-61
2020/12/12 00:20:11;;;;;;;29.17;16.58;;;4.50;99.90;;;;;;5011736;28;20042;-62
2020/12/12 00:22:36;;;;;;;24.85;15.48;;;4.50;99.90;;;;;;5012960;28;20037;-61
2020/12/12 00:25:03;;;;;;;26.10;16.08;;;4.60;99.90;;;;;;5011569;28;20356;-61
2020/12/12 00:27:29;;;;;;;27.42;16.02;;;4.50;99.90;;;;;;4979085;28;20112;-60
2020/12/12 00:29:55;;;;;;;28.48;16.65;;;4.50;99.90;;;;;;5012037;28;20049;-63
2020/12/12 00:32:21;;;;;;;27.75;16.58;;;4.40;99.90;;;;;;4994894;28;20026;-61
2020/12/12 00:34:46;;;;;;;25.55;16.45;;;4.60;99.90;;;;;;4995287;28;20030;-61
2020/12/12 00:37:12;;;;;;;26.58;16.40;;;4.50;99.90;;;;;;5012303;28;20497;-61
2020/12/12 00:39:38;;;;;;;24.52;15.40;;;4.50;99.90;;;;;;5012231;28;20034;-60
2020/12/12 00:42:06;;;;;;;28.40;16.17;;;4.50;99.90;;;;;;5011781;28;20062;-61
2020/12/12 00:44:31;;;;;;;30.17;16.75;;;4.50;99.90;;;;;;5012605;28;20497;-61
2020/12/12 00:46:57;;;;;;;29.17;16.50;;;4.60;99.90;;;;;;5010809;28;20112;-62
2020/12/12 00:49:23;;;;;;;28.92;17.98;;;4.60;99.90;;;;;;5012076;28;20026;-61
2020/12/12 00:51:48;;;;;;;25.52;16.52;;;4.60;99.90;;;;;;5011892;28;20055;-61
2020/12/12 00:54:14;;;;;;;31.77;17.27;;;4.50;99.90;;;;;;5011283;28;20077;-61
2020/12/12 00:56:39;;;;;;;25.73;16.52;;;4.50;99.90;;;;;;5012487;28;20029;-61
2020/12/12 00:59:05;;;;;;;28.63;16.10;;;4.60;99.90;;;;;;5011256;28;20022;-61
2020/12/12 01:01:31;;;;;;;28.05;15.98;;;4.50;99.90;;;;;;4996082;28;20183;-61
2020/12/12 01:03:56;;;;;;;24.33;15.18;;;4.40;99.90;;;;;;5011743;28;20121;-63
2020/12/12 01:06:22;;;;;;;29.17;16.15;;;4.50;99.90;;;;;;5011610;28;20161;-62
2020/12/12 01:08:48;;;;;;;27.02;16.17;;;4.70;99.90;;;;;;5011905;28;20031;-61
2020/12/12 01:11:15;;;;;;;26.33;14.85;;;4.50;99.90;;;;;;5010965;28;20034;-62
2020/12/12 01:13:41;;;;;;;27.38;16.27;;;4.50;99.90;;;;;;5012071;28;20030;-61
2020/12/12 01:16:11;;;;;;;24.60;15.40;;;4.40;99.90;;;;;;5009783;28;20029;-61
2020/12/12 01:18:37;;;;;;;27.98;15.10;;;4.50;99.90;;;;;;5010601;28;20499;-61
2020/12/12 01:21:04;;;;;;;27.75;15.60;;;4.60;99.90;;;;;;5009393;28;20062;-60
2020/12/12 01:23:31;;;;;;;25.70;15.13;;;4.60;99.90;;;;;;5010670;28;20030;-60
2020/12/12 01:25:56;;;;;;;25.08;14.70;;;4.60;99.90;;;;;;5010423;28;20112;-62
2020/12/12 01:28:23;;;;;;;23.60;15.15;;;4.60;99.90;;;;;;5010909;28;20054;-61
2020/12/12 01:30:53;;;;;;;29.50;15.07;;;4.50;99.90;;;;;;5010160;28;20136;-61
2020/12/12 01:33:19;;;;;;;28.10;15.82;;;4.50;99.90;;;;;;5009385;28;20041;-61
2020/12/12 01:35:45;;;;;;;25.92;14.88;;;4.50;99.90;;;;;;5010439;28;20113;-60
2020/12/12 01:38:11;;;;;;;26.52;15.65;;;4.70;99.90;;;;;;5010643;28;20108;-60
2020/12/12 01:40:38;;;;;;;23.70;14.10;;;4.70;99.90;;;;;;5010181;28;20033;-61
2020/12/12 01:43:03;;;;;;;24.15;15.43;;;4.70;99.90;;;;;;5010597;28;20029;-60
2020/12/12 01:45:30;;;;;;;22.58;13.68;;;4.70;99.90;;;;;;5010950;28;20164;-60
2020/12/12 01:47:57;;;;;;;23.80;14.82;;;4.60;99.90;;;;;;5009958;28;20034;-60
2020/12/12 01:50:24;;;;;;;22.95;14.40;;;4.60;99.90;;;;;;5009335;28;20128;-60
2020/12/12 01:52:53;;;;;;;21.45;13.77;;;4.70;99.90;;;;;;5011571;28;20034;-61
2020/12/12 01:55:20;;;;;;;24.08;14.13;;;4.70;99.90;;;;;;5009384;28;20054;-60
2020/12/12 01:57:48;;;;;;;21.70;14.38;;;4.70;99.90;;;;;;5011286;28;20047;-60
2020/12/12 02:00:14;;;;;;;23.00;14.95;;;4.70;99.90;;;;;;5009266;28;20459;-60
2020/12/12 02:02:45;;;;;;;23.35;15.15;;;4.60;99.90;;;;;;5009715;28;20527;-60
2020/12/12 02:05:38;;;;;;;21.40;14.18;;;4.50;99.90;;;;;;5009072;28;20452;-61
2020/12/12 02:08:02;;;;;;;22.60;14.70;;;4.60;99.90;;;;;;5010594;28;20033;-62
2020/12/12 02:10:28;;;;;;;23.73;15.18;;;4.80;99.90;;;;;;5009822;28;20033;-61
2020/12/12 02:12:54;;;;;;;25.58;14.25;;;4.80;99.90;;;;;;5010627;28;20087;-61
2020/12/12 02:15:19;;;;;;;25.23;14.50;;;4.70;99.90;;;;;;5010441;28;20253;-60
2020/12/12 02:17:46;;;;;;;25.35;15.85;;;4.80;99.90;;;;;;5009085;28;20102;-60
2020/12/12 02:20:11;;;;;;;23.55;14.98;;;4.80;99.90;;;;;;5009607;28;20033;-60
2020/12/12 02:22:37;;;;;;;22.40;14.13;;;4.80;99.90;;;;;;5010851;28;20033;-60
2020/12/12 02:25:03;;;;;;;22.15;13.23;;;4.70;99.90;;;;;;5010305;28;20487;-63
2020/12/12 02:27:28;;;;;;;21.67;13.63;;;4.80;99.90;;;;;;5010385;28;20041;-61
2020/12/12 02:29:54;;;;;;;25.40;16.52;;;4.80;99.90;;;;;;5009052;28;20049;-60
2020/12/12 02:32:20;;;;;;;29.95;15.52;;;4.90;99.90;;;;;;5010147;28;20033;-60
2020/12/12 02:34:45;;;;;;;22.75;14.63;;;4.80;99.90;;;;;;5010808;28;20029;-60
2020/12/12 02:37:11;;;;;;;22.80;14.60;;;4.90;99.90;;;;;;5008866;28;20478;-61
2020/12/12 02:39:37;;;;;;;27.08;14.57;;;4.70;99.90;;;;;;5011165;28;20033;-61
2020/12/12 02:42:02;;;;;;;28.05;16.05;;;4.70;99.90;;;;;;5010404;28;20077;-64
2020/12/12 02:44:31;;;;;;;26.85;15.27;;;4.60;99.90;;;;;;5010587;28;20034;-61
2020/12/12 02:46:57;;;;;;;26.77;15.75;;;4.80;99.90;;;;;;5009210;28;20033;-61
2020/12/12 02:49:23;;;;;;;24.75;15.10;;;4.80;99.90;;;;;;5010122;28;20022;-61
2020/12/12 02:51:49;;;;;;;25.23;14.52;;;4.80;99.90;;;;;;5009103;28;20034;-61
2020/12/12 02:54:15;;;;;;;22.02;14.20;;;4.90;99.90;;;;;;5009754;28;20022;-61
2020/12/12 02:56:40;;;;;;;21.63;14.52;;;4.80;99.90;;;;;;5010761;28;20113;-62
2020/12/12 02:59:06;;;;;;;22.38;14.10;;;4.70;99.90;;;;;;5008683;28;20451;-62
2020/12/12 03:01:32;;;;;;;26.10;15.25;;;4.70;99.90;;;;;;5008431;28;20385;-61
2020/12/12 03:03:57;;;;;;;25.73;15.02;;;4.80;99.90;;;;;;5008925;28;20041;-61
2020/12/12 03:06:23;;;;;;;27.58;16.13;;;4.60;99.90;;;;;;5009774;28;20030;-60
2020/12/12 03:08:48;;;;;;;29.33;14.88;;;4.80;99.90;;;;;;5009053;28;20415;-60
2020/12/12 03:11:14;;;;;;;23.27;14.70;;;4.70;99.90;;;;;;5008422;28;20033;-61
2020/12/12 03:13:40;;;;;;;23.83;14.65;;;4.80;99.90;;;;;;5009078;28;20033;-61
2020/12/12 03:16:05;;;;;;;23.05;14.38;;;5.10;99.90;;;;;;5008678;28;20351;-62
2020/12/12 03:18:31;;;;;;;25.50;15.38;;;4.90;99.90;;;;;;5008313;28;20042;-61
2020/12/12 03:20:57;;;;;;;28.10;16.50;;;4.90;99.90;;;;;;5009049;28;20117;-61
2020/12/12 03:23:22;;;;;;;29.05;15.82;;;4.90;99.90;;;;;;5009299;28;20053;-60
2020/12/12 03:25:48;;;;;;;23.85;15.10;;;5.00;99.90;;;;;;5010197;28;20432;-62
2020/12/12 03:28:14;;;;;;;29.80;17.75;;;4.90;99.90;;;;;;5009931;28;20084;-60
2020/12/12 03:30:39;;;;;;;26.65;15.40;;;4.90;99.90;;;;;;5011334;28;20046;-63
2020/12/12 03:33:05;;;;;;;28.83;17.05;;;4.80;99.90;;;;;;5013267;28;20084;-62
2020/12/12 03:35:32;;;;;;;26.42;15.52;;;4.80;99.90;;;;;;5012948;28;20116;-62
2020/12/12 03:37:58;;;;;;;25.38;15.07;;;4.90;99.90;;;;;;5014254;28;20021;-62
2020/12/12 03:40:24;;;;;;;27.25;16.20;;;4.90;99.90;;;;;;5011336;28;20118;-62
2020/12/12 03:42:51;;;;;;;27.80;16.77;;;4.90;99.90;;;;;;5013988;28;20105;-61
2020/12/12 03:45:18;;;;;;;28.08;16.35;;;4.90;99.90;;;;;;5011671;28;20112;-62
2020/12/12 03:47:44;;;;;;;23.50;15.00;;;5.00;99.90;;;;;;5013933;28;20324;-62
2020/12/12 03:50:10;;;;;;;28.08;17.15;;;5.00;99.90;;;;;;5012914;28;20033;-62
2020/12/12 03:52:36;;;;;;;28.58;16.73;;;5.20;99.90;;;;;;5012352;28;20037;-62
2020/12/12 03:55:01;;;;;;;24.95;15.43;;;4.80;99.90;;;;;;5012541;28;20025;-62
2020/12/12 03:57:27;;;;;;;26.23;16.00;;;4.70;99.90;;;;;;5012763;28;20049;-60
2020/12/12 03:59:53;;;;;;;31.48;16.75;;;4.80;99.90;;;;;;5013041;28;20042;-61
2020/12/12 04:02:18;;;;;;;27.98;16.38;;;4.80;99.90;;;;;;5012502;28;20089;-61
2020/12/12 04:04:44;;;;;;;25.08;15.32;;;4.80;99.90;;;;;;5013609;28;20481;-61
2020/12/12 04:07:09;;;;;;;25.75;15.68;;;4.80;99.90;;;;;;5012841;28;20137;-62
2020/12/12 04:09:35;;;;;;;28.42;17.42;;;4.70;99.90;;;;;;4994848;28;20022;-61
2020/12/12 04:12:01;;;;;;;25.95;17.10;;;4.80;99.90;;;;;;4995634;28;20036;-61
2020/12/12 04:14:26;;;;;;;27.98;16.73;;;4.70;99.90;;;;;;5012282;28;20029;-62
2020/12/12 04:16:52;;;;;;;28.10;17.10;;;4.80;99.90;;;;;;5013086;28;20026;-61
2020/12/12 04:19:18;;;;;;;28.90;17.77;;;4.60;99.90;;;;;;5012397;28;20026;-61
2020/12/12 04:21:43;;;;;;;28.40;16.17;;;4.60;99.90;;;;;;5013116;28;20057;-61
2020/12/12 04:24:09;;;;;;;25.50;16.25;;;4.90;99.90;;;;;;4994694;28;20109;-63
2020/12/12 04:26:35;;;;;;;28.02;16.38;;;4.90;99.90;;;;;;5012424;28;20104;-61
2020/12/12 04:29:00;;;;;;;27.45;17.27;;;4.80;99.90;;;;;;5011691;28;20386;-61
2020/12/12 04:31:26;;;;;;;28.08;16.05;;;4.80;99.90;;;;;;5011875;28;20478;-60
2020/12/12 04:33:52;;;;;;;28.70;15.98;;;4.80;99.90;;;;;;5012789;28;20033;-61
2020/12/12 04:36:17;;;;;;;30.05;17.33;;;4.80;99.90;;;;;;4993703;28;20105;-60
2020/12/12 04:38:43;;;;;;;28.45;17.83;;;4.70;99.90;;;;;;4995204;28;20033;-60
2020/12/12 04:41:10;;;;;;;29.40;16.48;;;4.70;99.90;;;;;;5011941;28;20112;-62
2020/12/12 04:43:39;;;;;;;26.10;16.27;;;4.70;99.90;;;;;;5011023;28;20075;-60
2020/12/12 04:46:05;;;;;;;31.15;17.00;;;4.70;99.90;;;;;;5011271;28;20137;-60
2020/12/12 04:48:31;;;;;;;28.80;16.05;;;4.80;99.90;;;;;;4993641;28;20181;-61
2020/12/12 04:50:57;;;;;;;26.02;15.90;;;4.90;99.90;;;;;;5012137;28;20399;-61
2020/12/12 04:53:26;;;;;;;27.35;15.95;;;4.70;99.90;;;;;;5012112;28;20122;-61
2020/12/12 04:55:54;;;;;;;27.75;15.25;;;4.70;99.90;;;;;;5012724;28;20034;-61
2020/12/12 04:58:25;;;;;;;27.45;16.05;;;4.80;99.90;;;;;;4993850;28;20026;-61
2020/12/12 05:00:53;;;;;;;24.90;14.88;;;4.70;99.90;;;;;;5011776;28;20037;-60
2020/12/12 05:03:21;;;;;;;23.20;14.27;;;4.70;99.90;;;;;;5011480;28;20026;-61
2020/12/12 05:05:47;;;;;;;24.65;15.48;;;4.90;99.90;;;;;;5012141;28;20056;-61
2020/12/12 05:08:13;;;;;;;32.13;17.38;;;4.90;99.90;;;;;;4993513;28;20112;-63
2020/12/12 05:10:43;;;;;;;22.90;14.73;;;4.90;99.90;;;;;;5011911;28;20025;-61
2020/12/12 05:13:17;;;;;;;24.00;15.23;;;4.90;99.90;;;;;;5011867;28;20026;-61
2020/12/12 05:15:44;;;;;;;27.45;15.88;;;5.00;99.90;;;;;;4994370;28;20395;-61
2020/12/12 05:18:10;;;;;;;30.83;17.90;;;4.90;99.90;;;;;;5011863;28;20456;-61
2020/12/12 05:20:39;;;;;;;26.02;16.13;;;5.00;99.90;;;;;;5011250;28;20034;-61
2020/12/12 05:23:22;;;;;;;31.25;16.08;;;4.90;99.90;;;;;;4994245;28;20100;-61
2020/12/12 05:25:49;;;;;;;29.30;16.95;;;4.90;99.90;;;;;;4994299;28;20363;-61
2020/12/12 05:28:17;;;;;;;29.38;16.25;;;4.90;99.90;;;;;;5009588;28;20425;-61
2020/12/12 05:30:45;;;;;;;27.23;16.58;;;4.80;99.90;;;;;;5011093;28;20049;-60
2020/12/12 05:33:17;;;;;;;28.48;17.08;;;4.90;99.90;;;;;;4993970;28;20487;-60
2020/12/12 05:35:43;;;;;;;27.98;16.75;;;5.00;99.90;;;;;;5011430;28;20026;-61
2020/12/12 05:38:09;;;;;;;24.13;15.55;;;5.00;99.90;;;;;;4993946;28;20033;-60
2020/12/12 05:40:37;;;;;;;26.83;16.95;;;5.00;99.90;;;;;;4992846;28;20046;-60
2020/12/12 05:43:08;;;;;;;28.58;16.88;;;4.90;99.90;;;;;;4993826;28;20033;-61
2020/12/12 05:45:34;;;;;;;28.83;17.43;;;4.90;99.90;;;;;;5009237;28;20576;-60
2020/12/12 05:48:00;;;;;;;28.92;17.05;;;4.80;99.90;;;;;;5011213;28;20371;-61
2020/12/12 05:50:26;;;;;;;27.38;17.75;;;4.90;99.90;;;;;;5009223;28;20030;-61
2020/12/12 05:52:54;;;;;;;29.33;15.77;;;4.90;99.90;;;;;;4992994;28;20025;-62
2020/12/12 05:55:25;;;;;;;27.13;16.08;;;5.00;99.90;;;;;;4992938;28;20040;-61
2020/12/12 05:57:52;;;;;;;;;;;5.00;99.90;;;;;;5011533;28;20049;-61
2020/12/12 06:00:23;;;;;;;27.10;17.08;;;5.10;99.90;;;;;;5010536;28;19945;-61
2020/12/12 06:02:55;;;;;;;29.13;16.67;;;5.10;99.90;;;;;;5006092;28;20108;-61
2020/12/12 06:05:29;;;;;;;25.23;15.23;;;5.20;99.90;;;;;;5010544;28;20030;-62
2020/12/12 06:08:03;;;;;;;28.15;16.92;;;4.90;99.90;;;;;;5009301;28;20026;-61
2020/12/12 06:10:32;;;;;;;28.08;16.65;;;5.00;99.90;;;;;;5009992;28;20069;-60
2020/12/12 06:13:05;;;;;;;28.58;16.80;;;5.00;99.90;;;;;;5009642;28;20444;-60
2020/12/12 06:15:37;;;;;;;28.70;16.80;;;5.00;99.90;;;;;;5010338;28;20030;-60
2020/12/12 06:18:37;;;;;;;28.40;17.27;;;5.00;99.90;;;;;;5009801;28;20061;-60
2020/12/12 06:21:08;;;;;;;28.02;16.45;;;4.90;99.90;;;;;;5009692;28;20160;-62
2020/12/12 06:23:37;;;;;;;29.50;17.92;;;5.00;99.90;;;;;;5010340;28;20036;-61
2020/12/12 06:26:03;;;;;;;28.05;17.65;;;4.90;99.90;;;;;;5010897;28;20072;-61
2020/12/12 06:28:31;;;;;;;28.25;17.85;;;4.90;99.90;;;;;;5008668;28;20070;-61
2020/12/12 06:30:57;;;;;;;28.25;16.35;;;5.00;99.90;;;;;;5009193;28;20471;-61
2020/12/12 06:33:23;;;;;;;29.05;17.55;;;4.80;99.90;;;;;;5009608;28;20083;-61
2020/12/12 06:35:49;;;;;;;27.10;17.95;;;4.80;99.90;;;;;;5010779;28;20480;-61
2020/12/12 06:38:19;;;;;;;25.23;16.35;;;4.80;99.90;;;;;;5009231;28;20063;-63
2020/12/12 06:40:45;;;;;;;26.95;16.33;;;5.00;99.90;;;;;;5010683;28;20156;-61
2020/12/12 06:43:28;;;;;;;24.83;15.50;;;4.90;99.90;;;;;;5009339;28;20077;-61
2020/12/12 06:45:55;;;;;;;28.48;17.85;;;4.90;99.90;;;;;;4993185;28;20026;-62
2020/12/12 06:48:28;;;;;;;27.27;15.68;;;4.80;99.90;;;;;;5009879;28;20069;-62
2020/12/12 06:50:56;;;;;;;22.88;15.32;;;4.80;99.90;;;;;;5010731;28;20037;-61
2020/12/12 06:53:24;;;;;;;29.88;16.55;;;4.90;99.90;;;;;;5009322;28;20041;-61
2020/12/12 06:56:14;;;;;;;25.02;16.65;;;5.00;99.90;;;;;;5009534;28;20026;-61
2020/12/12 06:58:42;;;;;;;30.45;16.67;;;4.90;99.90;;;;;;5008704;28;20066;-60
2020/12/12 07:01:35;;;;;;;22.08;14.77;;;4.80;99.90;;;;;;5010075;28;20034;-60
2020/12/12 07:04:06;;;;;;;23.63;16.50;;;4.80;99.90;;;;;;4992509;28;20199;-61
2020/12/12 07:06:34;;;;;;;24.08;14.98;;;4.90;99.90;;;;;;4995839;28;20022;-62
2020/12/12 07:09:03;;;;;;;28.27;16.40;;;4.90;99.90;;;;;;5014361;28;20091;-62
2020/12/12 07:11:31;;;;;;;25.05;15.73;;;4.80;99.90;;;;;;5013882;28;20034;-62
2020/12/12 07:13:58;;;;;;;24.48;14.15;;;4.80;99.90;;;;;;4997334;28;20403;-62
2020/12/12 07:16:24;;;;;;;23.20;15.35;;;4.90;99.90;;;;;;4995678;28;20028;-61
2020/12/12 07:18:51;;;;;;;23.58;15.27;;;4.90;99.90;;;;;;4996396;28;20529;-62
2020/12/12 07:21:18;;;;;;;23.08;14.98;;;4.90;99.90;;;;;;5013722;28;20610;-61
2020/12/12 07:23:44;;;;;;;22.77;15.45;;;5.00;99.90;;;;;;5013867;28;20025;-62
2020/12/12 07:26:10;;;;;;;25.65;15.73;;;5.00;99.90;;;;;;5014230;28;20030;-62
2020/12/12 07:28:37;;;;;;;23.65;14.73;;;5.00;99.90;;;;;;4995862;28;20049;-61
2020/12/12 07:31:03;;;;;;;25.70;15.20;;;4.90;99.90;;;;;;4995793;28;20112;-62
2020/12/12 07:33:29;;;;;;;23.58;15.02;;;5.00;99.90;;;;;;4995112;28;20041;-61
2020/12/12 07:35:55;;;;;;;23.08;14.43;;;5.10;99.90;;;;;;4996320;28;20395;-62
2020/12/12 07:38:21;;;;;;;22.33;13.95;;;5.10;99.90;;;;;;4995590;28;20026;-63
2020/12/12 07:40:47;;;;;;;22.00;13.38;;;5.00;99.90;;;;;;5013266;28;20041;-61
2020/12/12 07:43:12;;;;;;;22.02;14.15;;;5.10;99.90;;;;;;5013730;28;20136;-61
2020/12/12 07:48:06;;;;;;;20.88;13.82;;;5.20;99.90;;;;;;5013377;28;20455;-61
2020/12/12 07:50:32;;;;;;;24.08;14.23;;;5.10;99.90;;;;;;5012410;28;20113;-62
2020/12/12 07:53:12;;;;;;;20.05;12.85;;;5.30;99.90;;;;;;4995833;28;20087;-62
2020/12/12 07:55:46;;;;;;;20.08;12.80;;;5.20;99.90;;;;;;5012919;28;20025;-60
2020/12/12 07:58:19;;;;;;;20.63;13.43;;;5.20;99.90;;;;;;5013671;28;20057;-61
2020/12/12 08:00:44;;;;;;;23.25;13.43;;;5.40;99.90;;;;;;4995163;28;20022;-61
2020/12/12 08:03:10;;;;;;;20.48;13.27;;;5.30;99.90;;;;;;5013284;28;20060;-62
2020/12/12 08:05:36;;;;;;;20.95;12.75;;;5.40;99.90;;;;;;4995228;28;20547;-61
2020/12/12 08:08:09;;;;;;;19.75;12.48;;;5.40;99.90;;;;;;4995852;28;20030;-61
2020/12/12 08:10:35;;;;;;;19.00;12.77;;;5.50;99.90;;;;;;5011509;28;20141;-63
2020/12/12 08:13:01;;;;;;;20.00;12.30;;;5.60;99.90;;;;;;4995431;28;20125;-62
2020/12/12 08:15:34;;;;;;;20.52;13.88;;;5.70;99.90;;;;;;4994286;28;20048;-64
2020/12/12 08:18:16;;;;;;;22.15;13.10;;;5.20;99.90;;;;;;5013338;28;20439;-62
2020/12/12 08:20:42;;;;;;;21.55;13.80;;;5.30;99.90;;;;;;4994960;28;20111;-63
2020/12/12 08:23:14;;;;;;;21.17;14.05;;;5.20;99.90;;;;;;5013277;28;20030;-61
2020/12/12 08:25:41;;;;;;;19.90;13.35;;;5.30;99.90;;;;;;5012560;28;20018;-62
2020/12/12 08:28:08;;;;;;;22.75;14.80;;;5.20;99.90;;;;;;4995480;28;20394;-62
2020/12/12 08:30:34;;;;;;;21.42;14.25;;;5.10;99.90;;;;;;5012207;28;20060;-63
2020/12/12 08:33:11;;;;;;;22.08;14.75;;;5.20;99.90;;;;;;4995620;28;20463;-63
2020/12/12 08:35:37;;;;;;;24.02;15.27;;;5.10;99.90;;;;;;5012321;28;20026;-63
2020/12/12 08:38:11;;;;;;;22.30;14.30;;;5.00;99.90;;;;;;4995413;28;20379;-63
2020/12/12 08:40:42;;;;;;;23.40;16.02;;;5.10;99.90;;;;;;5012250;28;20033;-62
2020/12/12 08:43:10;;;;;;;20.73;14.68;;;5.10;99.90;;;;;;4995385;28;20366;-62
2020/12/12 08:45:37;;;;;;;21.48;14.55;;;5.10;99.90;;;;;;5012524;28;20037;-62
2020/12/12 08:48:11;;;;;;;21.70;15.20;;;5.10;99.90;;;;;;4995255;28;20376;-62
2020/12/12 08:50:47;;;;;;;26.40;14.45;;;5.20;99.90;;;;;;4993847;28;20426;-63
2020/12/12 08:53:29;;;;;;;23.33;14.70;;;5.10;99.90;;;;;;5010925;28;20034;-63
2020/12/12 08:56:07;;;;;;;23.92;15.82;;;5.20;99.90;;;;;;4994591;28;20034;-62
2020/12/12 08:58:39;;;;;;;22.13;14.48;;;5.30;99.90;;;;;;4994065;28;20025;-63
2020/12/12 09:01:15;;;;;;;25.25;15.65;;;5.30;99.90;;;;;;5012200;28;20486;-63
2020/12/12 09:04:01;;;;;;;25.20;15.85;;;5.10;99.90;;;;;;5011238;28;20552;-62
2020/12/12 09:06:48;;;;;;;22.90;14.85;;;5.30;99.90;;;;;;5019014;28;20080;-64
2020/12/12 09:09:19;;;;;;;24.52;14.98;;;5.30;99.90;;;;;;5017676;28;20042;-64
2020/12/12 09:11:57;;;;;;;24.38;15.98;;;5.20;99.90;;;;;;5011335;28;20584;-63
2020/12/12 09:14:24;;;;;;;22.63;14.70;;;6.20;99.90;;;;;;5010591;28;20038;-62
2020/12/12 09:17:17;;;;;;;21.45;14.13;;;5.70;99.90;;;;;;5010017;28;20032;-62
2020/12/12 09:19:43;;;;;;;20.65;14.30;;;5.50;99.90;;;;;;5009536;28;20100;-63
2020/12/12 09:22:10;;;;;;;23.92;16.15;;;5.50;99.90;;;;;;4993730;28;20026;-61
2020/12/12 09:24:35;;;;;;;24.05;15.82;;;5.30;99.90;;;;;;5009303;28;20021;-62
2020/12/12 09:27:01;;;;;;;22.02;14.70;;;5.40;99.90;;;;;;5023046;28;20143;-62
2020/12/12 09:29:27;;;;;;;21.73;14.80;;;5.30;99.90;;;;;;5028675;28;20034;-66
2020/12/12 09:31:55;;;;;;;19.48;13.90;;;5.30;99.90;;;;;;5028712;28;20120;-62
2020/12/12 09:34:21;;;;;;;24.17;15.43;;;5.30;99.90;;;;;;5030194;28;20037;-62
2020/12/12 09:36:51;;;;;;;24.77;16.05;;;5.30;99.90;;;;;;5029411;28;20049;-62
2020/12/12 09:39:17;;;;;;;23.33;14.93;;;5.40;99.90;;;;;;5030590;28;20382;-61
2020/12/12 09:41:43;;;;;;;23.73;16.55;;;5.30;99.90;;;;;;5011845;28;20029;-61
2020/12/12 09:44:09;;;;;;;27.80;15.95;;;5.30;99.90;;;;;;5030327;28;20447;-61
2020/12/12 09:46:35;;;;;;;23.60;15.13;;;5.40;99.90;;;;;;5027837;28;20083;-62
2020/12/12 09:49:01;;;;;;;25.50;16.38;;;5.50;99.90;;;;;;5028080;28;20064;-63
2020/12/12 09:51:27;;;;;;;24.27;16.05;;;5.50;99.90;;;;;;5028973;28;20099;-65
2020/12/12 09:53:53;;;;;;;26.88;16.35;;;5.50;99.90;;;;;;5028978;28;20518;-62
2020/12/12 09:56:19;;;;;;;23.38;14.85;;;5.70;99.90;;;;;;5011733;28;20021;-62
2020/12/12 09:58:45;;;;;;;20.20;13.73;;;5.50;99.90;;;;;;5017240;28;20303;-62
2020/12/12 10:01:12;;;;;;;23.15;15.75;;;5.60;99.90;;;;;;5033310;28;20525;-63
2020/12/12 10:03:38;;;;;;;23.58;15.55;;;5.60;99.90;;;;;;5022911;28;20049;-62
2020/12/12 10:06:06;;;;;;;23.27;14.90;;;5.60;99.90;;;;;;4982893;28;20435;-63
2020/12/12 10:08:32;;;;;;;21.05;14.65;;;5.70;99.90;;;;;;5019792;28;20029;-62
2020/12/12 10:10:57;;;;;;;21.83;15.23;;;5.70;99.90;;;;;;4997847;28;20491;-63
2020/12/12 10:13:23;;;;;;;26.17;15.88;;;5.80;99.90;;;;;;5021605;28;20088;-64
2020/12/12 10:15:49;;;;;;;27.27;15.50;;;5.80;99.90;;;;;;5017328;28;20021;-66
2020/12/12 10:18:15;;;;;;;27.08;16.45;;;5.70;99.90;;;;;;5026800;28;20052;-64
2020/12/12 10:20:41;;;;;;;24.52;14.80;;;5.80;99.90;;;;;;5026549;28;20483;-63
2020/12/12 10:23:08;;;;;;;23.30;15.30;;;6.10;99.90;;;;;;5016289;28;20084;-65
2020/12/12 10:25:34;;;;;;;22.23;14.93;;;6.20;99.90;;;;;;5019470;28;20046;-65
2020/12/12 10:27:59;;;;;;;22.83;15.40;;;5.90;99.90;;;;;;5023028;28;20060;-63
2020/12/12 10:30:25;;;;;;;22.13;15.75;;;5.90;99.90;;;;;;5013749;28;20398;-63
2020/12/12 10:32:51;;;;;;;22.63;13.43;;;5.90;99.90;;;;;;5007873;28;20021;-63
2020/12/12 10:35:17;;;;;;;21.73;14.80;;;5.80;99.90;;;;;;5022249;28;20387;-63
2020/12/12 10:37:43;;;;;;;22.10;15.38;;;5.90;99.90;;;;;;5001857;28;20395;-63
2020/12/12 10:40:16;;;;;;;26.50;15.25;;;5.80;99.90;;;;;;5011430;28;20049;-63
2020/12/12 10:42:42;;;;;;;25.92;17.02;;;5.70;99.90;;;;;;5012595;28;20495;-65
2020/12/12 10:45:09;;;;;;;22.52;15.00;;;5.80;99.90;;;;;;5023511;28;20117;-62
2020/12/12 10:47:35;;;;;;;22.35;16.23;;;5.70;99.90;;;;;;5015535;28;20366;-63
2020/12/12 10:50:01;;;;;;;73.32;28.08;;;5.60;99.90;;;;;;5015840;28;20403;-63
2020/12/12 10:52:27;;;;;;;60.58;24.05;;;6.10;99.90;;;;;;5017586;28;20539;-63
2020/12/12 10:54:52;;;;;;;54.90;25.25;;;9.00;99.90;;;;;;5023264;28;20026;-48
2020/12/12 10:57:18;;;;;;;28.83;16.08;;;9.80;99.90;;;;;;5016811;28;20104;-66
2020/12/12 10:59:44;;;;;;;22.17;15.80;;;8.80;99.90;;;;;;5018547;28;20410;-66
2020/12/12 11:02:11;;;;;;;18.95;13.50;;;7.80;99.90;;;;;;4999023;28;20585;-67
2020/12/12 11:04:39;;;;;;;21.50;14.68;;;7.20;99.90;;;;;;5017593;28;20061;-65
2020/12/12 11:07:05;;;;;;;19.10;13.95;;;6.70;99.90;;;;;;5016351;28;20030;-65
2020/12/12 11:09:32;;;;;;;24.33;15.65;;;6.60;99.90;;;;;;5026482;28;20095;-65
2020/12/12 11:11:57;;;;;;;26.08;17.20;;;6.30;99.90;;;;;;5019034;28;20087;-63
2020/12/12 11:14:24;;;;;;;25.52;16.13;;;6.40;99.90;;;;;;5016110;28;20050;-63
2020/12/12 11:16:51;;;;;;;22.70;14.57;;;6.40;99.90;;;;;;5024936;28;20013;-62
2020/12/12 11:19:17;;;;;;;23.63;14.82;;;6.40;99.90;;;;;;5018216;28;20081;-63
2020/12/12 11:21:43;;;;;;;23.48;14.77;;;6.10;99.90;;;;;;5021009;28;20026;-63
2020/12/12 11:24:08;;;;;;;22.45;14.60;;;6.20;99.90;;;;;;5011383;28;20029;-64
2020/12/12 11:26:34;;;;;;;20.20;14.57;;;6.10;99.90;;;;;;5022528;28;20096;-63
2020/12/12 11:29:00;;;;;;;50.88;24.10;;;6.20;99.90;;;;;;5013378;28;20063;-71
2020/12/12 11:31:26;;;;;;;35.10;20.60;;;6.60;99.90;;;;;;5027653;28;20099;-68
2020/12/12 11:34:08;;;;;;;36.55;19.55;;;7.20;99.90;;;;;;5028052;28;20793;-69
2020/12/12 11:39:25;;;;;;;27.17;16.10;;;8.30;99.90;;;;;;5020808;28;20029;-69
2020/12/12 11:45:33;;;;;;;21.83;14.20;;;7.60;99.90;;;;;;5029184;28;20037;-62
2020/12/12 11:47:12;;;;;;;18.38;12.68;;;6.90;99.90;;;;;;5015806;28;20045;-62
2020/12/12 11:49:38;;;;;;;21.33;14.00;;;6.40;99.90;;;;;;5027012;28;20121;-61
2020/12/12 11:52:04;;;;;;;19.40;13.32;;;6.30;99.90;;;;;;5031023;28;20120;-62
2020/12/12 11:54:30;;;;;;;25.90;14.10;;;6.40;99.90;;;;;;5030977;28;20109;-64
2020/12/12 11:56:55;;;;;;;24.17;14.88;;;6.30;99.90;;;;;;5032810;28;20056;-61
2020/12/12 11:59:21;;;;;;;19.10;13.27;;;6.20;99.90;;;;;;5032075;28;20025;-63
2020/12/12 12:01:47;;;;;;;23.80;13.82;;;6.10;99.90;;;;;;5032476;28;20061;-63
2020/12/12 12:04:13;;;;;;;22.20;14.30;;;6.20;99.90;;;;;;5033371;28;20037;-62
2020/12/12 12:06:38;;;;;;;21.58;13.48;;;6.20;99.90;;;;;;5032364;28;20037;-62
2020/12/12 12:14:02;;;;;;;20.65;14.43;;;6.20;99.90;;;;;;5032590;28;20087;-63
2020/12/12 12:16:28;;;;;;;21.33;14.77;;;6.20;99.90;;;;;;5032465;28;20530;-62
2020/12/12 12:18:54;;;;;;;25.10;15.07;;;6.20;99.90;;;;;;5031927;28;20026;-62
2020/12/12 12:21:21;;;;;;;22.38;14.52;;;6.30;99.90;;;;;;5032584;28;20029;-62
2020/12/12 12:23:46;;;;;;;23.20;15.00;;;6.40;99.90;;;;;;5032333;28;20048;-62
2020/12/12 12:26:15;;;;;;;26.63;15.07;;;6.30;99.90;;;;;;5014577;28;20052;-63
2020/12/12 12:28:41;;;;;;;23.77;14.65;;;6.30;99.90;;;;;;5031793;28;20448;-63
2020/12/12 12:31:07;;;;;;;22.20;14.48;;;6.30;99.90;;;;;;5014520;28;20183;-63
2020/12/12 12:33:32;;;;;;;24.50;14.40;;;6.40;99.90;;;;;;5014025;28;20156;-62
2020/12/12 12:35:58;;;;;;;22.48;14.27;;;6.50;99.90;;;;;;5032414;28;20021;-63
2020/12/12 12:38:24;;;;;;;29.33;15.80;;;6.60;99.90;;;;;;5014285;28;20027;-63
2020/12/12 12:40:50;;;;;;;24.17;14.52;;;6.60;99.90;;;;;;5032051;28;20061;-62
2020/12/12 12:43:15;;;;;;;23.67;15.38;;;6.70;99.90;;;;;;5031821;28;20030;-62
2020/12/12 12:45:42;;;;;;;31.85;17.80;;;6.70;99.90;;;;;;5031299;28;20524;-63
2020/12/12 12:48:07;;;;;;;27.20;15.60;;;6.70;99.90;;;;;;5032340;28;20390;-63
2020/12/12 12:50:33;;;;;;;27.67;15.63;;;6.60;99.90;;;;;;5014295;28;20040;-63
2020/12/12 12:53:04;;;;;;;26.33;15.27;;;6.30;99.90;;;;;;5014311;28;20098;-63